Time;durP1;ratioP1;P1;durP2;ratioP2;P2;SDS_P1;SDS_P2;PMS_P1;PMS_P2;Temp;Humidity;BMP_temperature;BMP_pressure;BME280_temperature;BME280_humidity;BME280_pressure;Samples;Min_cycle;Max_cycle;Signal;HPM_P1;HPM_P2
2022/08/24 00:02:00;;;;;;;8.93;6.00;;;;;;;22.16;100.00;101672.41;4893224;29;20484;-63
2022/08/24 00:04:27;;;;;;;9.25;6.05;;;;;;;22.09;100.00;101674.25;4909931;29;20056;-63
2022/08/24 00:06:57;;;;;;;9.88;6.07;;;;;;;22.05;100.00;101673.84;4903461;29;20059;-63
2022/08/24 00:09:24;;;;;;;13.00;6.80;;;;;;;22.04;100.00;101666.84;4907793;29;20060;-63
2022/08/24 00:11:50;;;;;;;11.70;6.35;;;;;;;22.09;100.00;101672.41;4902532;29;20060;-62
2022/08/24 00:14:17;;;;;;;9.13;6.97;;;;;;;22.07;100.00;101673.63;4895717;29;20044;-61
2022/08/24 00:16:44;;;;;;;10.57;6.45;;;;;;;22.04;100.00;101669.53;4895192;29;20138;-62
2022/08/24 00:19:11;;;;;;;8.65;6.70;;;;;;;21.96;100.00;101674.25;4908854;29;20052;-63
2022/08/24 00:21:38;;;;;;;9.77;6.65;;;;;;;21.95;100.00;101680.59;4900261;29;20055;-62
2022/08/24 00:24:05;;;;;;;10.98;6.72;;;;;;;21.91;100.00;101681.00;4899638;29;20139;-64
2022/08/24 00:26:31;;;;;;;12.43;7.07;;;;;;;21.86;100.00;101677.28;4895205;29;20058;-62
2022/08/24 00:28:58;;;;;;;17.25;6.50;;;;;;;21.80;100.00;101681.59;4899077;29;20055;-62
2022/08/24 00:31:28;;;;;;;9.55;6.25;;;;;;;21.75;100.00;101683.19;4901242;29;20454;-62
2022/08/24 00:33:55;;;;;;;11.70;6.53;;;;;;;21.69;100.00;101680.28;4895132;29;20060;-63
2022/08/24 00:36:23;;;;;;;8.48;6.20;;;;;;;21.70;100.00;101687.28;4899363;29;20060;-63
2022/08/24 00:38:50;;;;;;;9.10;6.53;;;;;;;21.65;100.00;101688.91;4905127;29;20058;-62
2022/08/24 00:41:16;;;;;;;8.23;5.85;;;;;;;21.64;100.00;101681.91;4892576;29;20061;-60
2022/08/24 00:43:55;;;;;;;11.63;7.25;;;;;;;21.66;100.00;101690.53;4900297;29;20059;-63
2022/08/24 00:46:48;;;;;;;11.20;6.70;;;;;;;21.60;100.00;101686.84;4894614;29;20060;-63
2022/08/24 00:49:36;;;;;;;8.80;6.13;;;;;;;21.56;100.00;101692.75;4900866;29;20052;-63
2022/08/24 00:52:12;;;;;;;10.85;6.57;;;;;;;21.58;100.00;101688.88;4898552;29;20052;-63
2022/08/24 00:54:43;;;;;;;8.93;6.03;;;;;;;21.60;100.00;101689.50;4896198;29;20059;-63
2022/08/24 00:57:16;;;;;;;8.30;6.13;;;;;;;21.59;100.00;101687.84;4897206;29;20056;-62
2022/08/24 00:59:48;;;;;;;10.75;7.05;;;;;;;21.58;100.00;101690.72;4907176;29;20056;-62
2022/08/24 01:02:19;;;;;;;11.05;6.45;;;;;;;21.55;100.00;101697.28;4901585;29;20052;-63
2022/08/24 01:04:59;;;;;;;10.75;6.78;;;;;;;21.53;100.00;101699.31;4908559;29;20616;-62
2022/08/24 01:07:29;;;;;;;7.60;6.13;;;;;;;21.50;100.00;101699.72;4894372;29;20062;-62
2022/08/24 01:10:00;;;;;;;9.15;5.93;;;;;;;21.46;100.00;101698.47;4890860;29;20066;-62
2022/08/24 01:12:30;;;;;;;8.02;6.15;;;;;;;21.38;100.00;101694.06;4906090;29;20066;-63
2022/08/24 01:14:59;;;;;;;11.20;6.35;;;;;;;21.37;100.00;101695.09;4899108;29;20416;-63
2022/08/24 01:20:12;;;;;;;8.02;5.63;;;;;;;21.32;100.00;101690.34;4911097;29;20052;-67
2022/08/24 01:23:01;;;;;;;7.18;6.03;;;;;;;21.29;100.00;101688.09;4903828;29;20056;-63
2022/08/24 01:25:30;;;;;;;8.80;6.55;;;;;;;21.31;100.00;101693.22;4896394;29;20067;-63
2022/08/24 01:28:04;;;;;;;9.15;6.30;;;;;;;21.30;100.00;101695.06;4908906;29;20485;-64
2022/08/24 01:30:32;;;;;;;13.88;6.05;;;;;;;21.28;100.00;101697.09;4892805;29;20059;-63
2022/08/24 01:33:06;;;;;;;10.52;6.40;;;;;;;21.28;100.00;101688.28;4906806;29;20578;-64
2022/08/24 01:35:35;;;;;;;10.40;6.13;;;;;;;21.23;100.00;101696.03;4898940;29;20055;-63
2022/08/24 01:38:06;;;;;;;14.07;6.22;;;;;;;21.19;100.00;101694.78;4886970;29;20060;-61
2022/08/24 01:40:37;;;;;;;11.43;6.63;;;;;;;21.12;100.00;101687.56;4905345;29;20059;-62
2022/08/24 01:43:06;;;;;;;11.45;6.70;;;;;;;21.10;100.00;101686.94;4901244;29;20433;-63
2022/08/24 01:45:33;;;;;;;8.10;6.20;;;;;;;21.08;100.00;101685.50;4902997;29;20052;-61
2022/08/24 01:48:01;;;;;;;9.13;6.63;;;;;;;21.06;100.00;101687.53;4891550;29;20052;-62
2022/08/24 01:50:30;;;;;;;11.20;6.47;;;;;;;21.07;100.00;101684.66;4903287;29;20456;-62
2022/08/24 01:53:01;;;;;;;8.10;6.38;;;;;;;21.08;100.00;101680.16;4906423;29;20057;-62
2022/08/24 01:55:32;;;;;;;9.65;6.47;;;;;;;21.02;100.00;101683.59;4895085;29;20597;-62
2022/08/24 01:57:59;;;;;;;9.07;6.55;;;;;;;20.99;100.00;101689.31;4890281;29;20052;-62
2022/08/24 02:00:25;;;;;;;8.85;6.65;;;;;;;20.98;100.00;101688.50;4889062;29;20770;-61
2022/08/24 02:02:52;;;;;;;11.07;6.70;;;;;;;20.94;100.00;101688.06;4898066;29;20059;-62
2022/08/24 02:05:19;;;;;;;14.55;7.13;;;;;;;20.92;100.00;101687.44;4892281;29;20060;-62
2022/08/24 02:07:45;;;;;;;9.90;6.25;;;;;;;20.91;100.00;101687.63;4901632;29;20040;-61
2022/08/24 02:10:14;;;;;;;10.25;5.97;;;;;;;20.90;100.00;101685.97;4907456;29;20056;-63
2022/08/24 02:12:43;;;;;;;9.23;6.45;;;;;;;20.88;100.00;101686.16;4902349;29;20059;-63
2022/08/24 02:15:10;;;;;;;8.23;6.30;;;;;;;20.87;100.00;101689.84;4904709;29;20587;-63
2022/08/24 02:17:36;;;;;;;9.77;6.40;;;;;;;20.86;100.00;101682.06;4895410;29;20057;-63
2022/08/24 02:20:04;;;;;;;8.02;6.20;;;;;;;20.86;100.00;101685.53;4895084;29;20047;-62
2022/08/24 02:22:31;;;;;;;8.55;6.40;;;;;;;20.86;100.00;101690.06;4898775;29;20059;-63
2022/08/24 02:24:57;;;;;;;9.20;6.22;;;;;;;20.84;100.00;101687.56;4907205;29;20052;-62
2022/08/24 02:27:24;;;;;;;9.35;6.15;;;;;;;20.82;100.00;101692.28;4904265;29;20444;-63
2022/08/24 02:29:50;;;;;;;7.03;5.80;;;;;;;20.76;100.00;101690.38;4890966;29;20053;-62
2022/08/24 02:32:17;;;;;;;10.93;5.80;;;;;;;20.71;100.00;101696.28;4906770;29;20087;-63
2022/08/24 02:34:43;;;;;;;8.05;5.95;;;;;;;20.66;100.00;101703.19;4901779;29;20056;-62
2022/08/24 02:37:09;;;;;;;11.85;6.50;;;;;;;20.62;100.00;101704.59;4909376;29;20060;-64
2022/08/24 02:39:36;;;;;;;9.07;6.25;;;;;;;20.58;100.00;101704.16;4905309;29;20063;-62
2022/08/24 02:42:02;;;;;;;9.30;5.72;;;;;;;20.57;100.00;101704.34;4895251;29;20059;-62
2022/08/24 02:44:29;;;;;;;9.88;6.15;;;;;;;20.51;100.00;101714.72;4901555;29;20060;-63
2022/08/24 02:46:55;;;;;;;8.38;6.10;;;;;;;20.49;100.00;101708.78;4899644;29;20048;-62
2022/08/24 02:49:22;;;;;;;7.20;6.00;;;;;;;20.44;100.00;101715.69;4908859;29;20059;-63
2022/08/24 02:51:49;;;;;;;7.97;6.50;;;;;;;20.45;100.00;101712.00;4903516;29;20060;-61
2022/08/24 02:54:16;;;;;;;7.97;6.32;;;;;;;20.46;100.00;101710.97;4909916;29;20050;-63
2022/08/24 02:56:44;;;;;;;8.68;6.18;;;;;;;20.43;100.00;101706.88;4899467;29;20056;-62
2022/08/24 02:59:11;;;;;;;9.75;6.53;;;;;;;20.40;100.00;101709.91;4904203;29;20493;-61
2022/08/24 03:01:37;;;;;;;8.45;6.97;;;;;;;20.37;100.00;101707.63;4910297;29;20058;-62
2022/08/24 03:04:04;;;;;;;8.35;6.90;;;;;;;20.33;100.00;101709.03;4893236;29;20052;-63
2022/08/24 03:06:31;;;;;;;10.18;7.72;;;;;;;20.30;100.00;101707.53;4899101;29;20048;-62
2022/08/24 03:08:57;;;;;;;8.13;6.75;;;;;;;20.31;100.00;101703.06;4894237;29;20082;-63
2022/08/24 03:11:24;;;;;;;10.10;7.50;;;;;;;20.34;100.00;101710.66;4902918;29;20052;-63
2022/08/24 03:13:54;;;;;;;11.43;7.18;;;;;;;20.34;100.00;101706.16;4902566;29;20483;-63
2022/08/24 03:16:21;;;;;;;8.73;6.78;;;;;;;20.32;100.00;101702.03;4907259;29;20147;-64
2022/08/24 03:18:48;;;;;;;10.50;7.32;;;;;;;20.30;100.00;101701.41;4907093;29;20048;-64
2022/08/24 03:21:15;;;;;;;7.22;6.40;;;;;;;20.27;100.00;101699.94;4903042;29;20059;-63
2022/08/24 03:23:41;;;;;;;8.52;6.68;;;;;;;20.26;100.00;101697.47;4909422;29;20059;-61
2022/08/24 03:26:08;;;;;;;9.75;6.78;;;;;;;20.23;100.00;101697.84;4906107;29;20060;-61
2022/08/24 03:28:35;;;;;;;9.07;6.85;;;;;;;20.20;100.00;101700.88;4903374;29;20057;-61
2022/08/24 03:31:02;;;;;;;11.18;7.43;;;;;;;20.17;100.00;101695.94;4898405;29;20044;-62
2022/08/24 03:33:29;;;;;;;10.70;7.40;;;;;;;20.16;100.00;101700.44;4908209;29;20063;-62
2022/08/24 03:35:55;;;;;;;8.90;6.97;;;;;;;20.14;100.00;101702.47;4903561;29;20055;-63
2022/08/24 03:38:22;;;;;;;8.68;7.15;;;;;;;20.17;100.00;101696.78;4882662;29;20087;-62
2022/08/24 03:40:49;;;;;;;10.23;8.45;;;;;;;20.13;100.00;101693.66;4899271;29;20048;-62
2022/08/24 03:46:06;;;;;;;10.75;8.23;;;;;;;20.11;100.00;101697.50;4903721;29;20067;-62
2022/08/24 03:48:32;;;;;;;9.40;7.00;;;;;;;20.07;100.00;101693.56;4891985;29;20067;-63
2022/08/24 03:50:59;;;;;;;10.90;8.00;;;;;;;20.10;100.00;101699.34;4900520;29;20060;-63
2022/08/24 03:53:26;;;;;;;10.65;8.35;;;;;;;20.06;100.00;101695.41;4909941;29;20060;-62
2022/08/24 03:55:52;;;;;;;14.68;9.13;;;;;;;20.03;100.00;101701.13;4903965;29;20322;-62
2022/08/24 03:58:18;;;;;;;10.93;9.25;;;;;;;19.98;100.00;101700.84;4909879;29;20471;-62
2022/08/24 04:00:45;;;;;;;10.93;8.90;;;;;;;19.99;100.00;101699.84;4896746;29;20057;-62
2022/08/24 04:03:12;;;;;;;11.40;9.32;;;;;;;19.99;100.00;101707.81;4903191;29;20078;-62
2022/08/24 04:05:41;;;;;;;13.45;9.70;;;;;;;19.95;100.00;101710.06;4890929;29;20433;-61
2022/08/24 04:08:07;;;;;;;12.98;10.10;;;;;;;19.93;100.00;101721.88;4903914;29;20075;-64
2022/08/24 04:10:34;;;;;;;13.15;10.43;;;;;;;19.90;100.00;101709.78;4909877;29;20056;-61
2022/08/24 04:13:00;;;;;;;13.05;9.88;;;;;;;19.88;100.00;101717.13;4902223;29;20096;-63
2022/08/24 04:15:28;;;;;;;12.80;9.52;;;;;;;19.91;100.00;101713.25;4906788;29;20047;-62
2022/08/24 04:17:55;;;;;;;11.73;10.00;;;;;;;19.84;100.00;101713.19;4895761;29;20047;-63
2022/08/24 04:20:22;;;;;;;13.05;10.07;;;;;;;19.81;100.00;101713.56;4908583;29;20056;-62
2022/08/24 04:22:50;;;;;;;12.65;9.75;;;;;;;19.81;100.00;101705.56;4904073;29;20055;-63
2022/08/24 04:25:18;;;;;;;11.32;10.15;;;;;;;19.79;100.00;101704.94;4911935;29;20078;-63
2022/08/24 04:27:50;;;;;;;12.52;10.45;;;;;;;19.80;100.00;101708.41;4903584;29;20127;-62
2022/08/24 04:30:17;;;;;;;13.07;10.32;;;;;;;19.80;100.00;101713.72;4897457;29;20088;-64
2022/08/24 04:32:44;;;;;;;13.13;10.95;;;;;;;19.76;100.00;101710.63;4905252;29;20060;-62
2022/08/24 04:35:10;;;;;;;16.08;11.85;;;;;;;19.74;100.00;101716.13;4902649;29;20052;-63
2022/08/24 04:37:37;;;;;;;16.92;13.82;;;;;;;19.73;100.00;101713.66;4909169;29;20052;-63
2022/08/24 04:40:04;;;;;;;16.17;14.18;;;;;;;19.74;100.00;101717.97;4902555;29;20052;-62
2022/08/24 04:42:31;;;;;;;19.88;16.08;;;;;;;19.71;100.00;101715.66;4894929;29;20420;-64
2022/08/24 04:44:58;;;;;;;17.80;15.35;;;;;;;19.70;100.00;101719.34;4902295;29;20642;-62
2022/08/24 04:47:25;;;;;;;19.23;12.32;;;;;;;19.74;100.00;101720.66;4891543;29;20056;-62
2022/08/24 04:49:51;;;;;;;16.00;12.55;;;;;;;19.79;100.00;101720.09;4908321;29;20052;-61
2022/08/24 04:52:18;;;;;;;15.35;12.35;;;;;;;19.81;100.00;101723.38;4899978;29;20052;-62
2022/08/24 04:54:44;;;;;;;14.45;12.65;;;;;;;19.82;100.00;101728.53;4908283;29;20055;-63
2022/08/24 04:57:10;;;;;;;15.68;13.13;;;;;;;19.80;100.00;101727.03;4900994;29;20066;-62
2022/08/24 04:59:43;;;;;;;17.60;13.88;;;;;;;19.74;100.00;101728.63;4896165;29;20771;-62
2022/08/24 05:02:09;;;;;;;15.45;13.02;;;;;;;19.72;100.00;101730.66;4897756;29;20047;-62
2022/08/24 05:04:36;;;;;;;16.80;13.32;;;;;;;19.75;100.00;101743.56;4892333;29;20060;-59
2022/08/24 05:07:03;;;;;;;16.92;13.65;;;;;;;19.74;100.00;101741.94;4906208;29;20067;-62
2022/08/24 05:09:29;;;;;;;16.85;13.93;;;;;;;19.75;100.00;101739.06;4900339;29;20067;-63
2022/08/24 05:11:57;;;;;;;14.57;12.13;;;;;;;19.81;100.00;101736.69;4901317;29;20147;-64
2022/08/24 05:14:23;;;;;;;18.27;12.65;;;;;;;19.83;100.00;101735.50;4886991;29;20325;-61
2022/08/24 05:16:54;;;;;;;15.13;12.60;;;;;;;19.87;100.00;101741.28;4904252;29;20497;-62
2022/08/24 05:19:22;;;;;;;17.35;13.70;;;;;;;19.88;100.00;101746.41;4906778;29;20060;-63
2022/08/24 05:21:49;;;;;;;18.40;14.57;;;;;;;19.85;100.00;101752.09;4899253;29;20060;-63
2022/08/24 05:24:16;;;;;;;15.65;14.02;;;;;;;19.84;100.00;101755.78;4903620;29;20048;-63
2022/08/24 05:26:42;;;;;;;17.45;14.35;;;;;;;19.86;100.00;101751.09;4895431;29;20056;-62
2022/08/24 05:29:09;;;;;;;17.45;14.45;;;;;;;19.89;100.00;101745.38;4897320;29;20052;-62
2022/08/24 05:31:35;;;;;;;18.20;13.88;;;;;;;19.95;100.00;101754.47;4896691;29;20382;-63
2022/08/24 05:34:03;;;;;;;17.02;14.13;;;;;;;19.96;100.00;101758.81;4903026;29;20063;-62
2022/08/24 05:36:32;;;;;;;17.58;13.88;;;;;;;19.99;100.00;101753.09;4904565;29;20059;-62
2022/08/24 05:39:01;;;;;;;17.10;13.65;;;;;;;20.00;100.00;101761.94;4901832;29;20421;-62
2022/08/24 05:41:28;;;;;;;15.55;13.55;;;;;;;20.03;100.00;101767.72;4902338;29;20489;-60
2022/08/24 05:43:54;;;;;;;19.90;15.65;;;;;;;20.06;100.00;101763.84;4897828;29;20172;-64
2022/08/24 05:46:21;;;;;;;18.48;15.48;;;;;;;20.09;100.00;101766.13;4904047;29;20492;-64
2022/08/24 05:48:47;;;;;;;24.30;15.93;;;;;;;20.15;100.00;101763.56;4902820;29;20052;-62
2022/08/24 05:51:19;;;;;;;19.73;17.08;;;;;;;20.22;100.00;101765.47;4900537;29;20184;-63
2022/08/24 05:53:46;;;;;;;22.15;16.80;;;;;;;20.26;100.00;101758.75;4899226;29;20052;-62
2022/08/24 05:56:15;;;;;;;22.45;17.02;;;;;;;20.35;100.00;101755.78;4892158;29;20056;-62
2022/08/24 05:58:41;;;;;;;19.70;16.63;;;;;;;20.41;100.00;101761.38;4908006;29;20055;-62
2022/08/24 06:01:10;;;;;;;24.73;16.55;;;;;;;20.46;100.00;101762.44;4902284;29;20056;-61
2022/08/24 06:03:38;;;;;;;23.17;16.90;;;;;;;20.51;100.00;101757.38;4907707;29;20708;-64
2022/08/24 06:06:07;;;;;;;22.65;16.17;;;;;;;20.56;100.00;101762.13;4894685;29;20071;-64
2022/08/24 06:08:38;;;;;;;19.88;16.02;;;;;;;20.63;100.00;101757.72;4887050;29;20456;-63
2022/08/24 06:11:07;;;;;;;20.75;15.68;;;;;;;20.64;100.00;101762.06;4892537;29;20486;-62
2022/08/24 06:13:34;;;;;;;21.27;15.98;;;;;;;20.67;100.00;101766.19;4898799;29;20444;-62
2022/08/24 06:16:20;;;;;;;24.58;15.75;;;;;;;20.77;100.00;101771.19;4905745;29;20055;-62
2022/08/24 06:18:49;;;;;;;24.95;16.63;;;;;;;20.77;100.00;101779.19;4896567;29;20074;-64
2022/08/24 06:21:18;;;;;;;19.98;16.40;;;;;;;20.83;100.00;101775.75;4900545;29;20047;-63
2022/08/24 06:23:46;;;;;;;24.70;16.90;;;;;;;20.84;100.00;101778.22;4891854;29;20052;-63
2022/08/24 06:28:59;;;;;;;21.77;16.30;;;;;;;20.96;100.00;101781.22;4899027;29;20052;-63
2022/08/24 06:31:26;;;;;;;26.63;21.27;;;;;;;21.03;100.00;101783.91;4902901;29;20062;-64
2022/08/24 06:33:53;;;;;;;32.55;23.05;;;;;;;21.11;100.00;101779.28;4883413;29;20056;-63
2022/08/24 06:36:20;;;;;;;28.17;21.70;;;;;;;21.18;100.00;101784.66;4892544;29;20078;-63
2022/08/24 06:38:48;;;;;;;24.88;20.73;;;;;;;21.22;100.00;101787.78;4885556;29;20147;-61
2022/08/24 06:41:15;;;;;;;27.65;22.42;;;;;;;21.24;100.00;101791.06;4891230;29;20056;-63
2022/08/24 06:43:42;;;;;;;27.88;22.63;;;;;;;21.28;100.00;101787.81;4907956;29;20056;-64
2022/08/24 06:46:09;;;;;;;23.67;18.85;;;;;;;21.33;100.00;101788.06;4895828;29;20138;-62
2022/08/24 06:48:35;;;;;;;27.17;22.17;;;;;;;21.40;100.00;101787.28;4890657;29;20059;-62
2022/08/24 06:51:08;;;;;;;29.02;23.27;;;;;;;21.50;100.00;101793.13;4895150;29;20493;-62
2022/08/24 06:53:35;;;;;;;24.60;20.17;;;;;;;21.50;100.00;101796.66;4905920;29;20048;-63
2022/08/24 06:56:01;;;;;;;27.25;21.10;;;;;;;21.56;100.00;101794.19;4905305;29;20060;-62
2022/08/24 06:58:28;;;;;;;27.02;21.90;;;;;;;21.60;100.00;101792.78;4894322;29;20075;-63
2022/08/24 07:00:57;;;;;;;27.63;21.67;;;;;;;21.64;100.00;101786.03;4909430;29;20052;-63
2022/08/24 07:03:24;;;;;;;32.10;23.30;;;;;;;21.71;100.00;101789.56;4898235;29;20087;-64
2022/08/24 07:05:56;;;;;;;29.02;23.73;;;;;;;21.78;100.00;101794.94;4905437;29;20074;-63
2022/08/24 07:08:23;;;;;;;29.33;21.45;;;;;;;21.80;100.00;101800.94;4901706;29;20820;-64
2022/08/24 07:10:50;;;;;;;28.60;21.38;;;;;;;21.81;100.00;101791.88;4908422;29;20073;-62
2022/08/24 07:13:16;;;;;;;28.00;22.33;;;;;;;21.90;100.00;101791.53;4907765;29;20106;-62
2022/08/24 07:15:44;;;;;;;25.90;20.58;;;;;;;21.96;100.00;101794.44;4903663;29;20052;-62
2022/08/24 07:18:12;;;;;;;23.63;18.27;;;;;;;22.05;100.00;101801.25;4896986;29;20052;-63
2022/08/24 07:20:40;;;;;;;21.02;16.25;;;;;;;22.09;100.00;101795.31;4901409;29;20052;-64
2022/08/24 07:23:08;;;;;;;22.65;20.20;;;;;;;22.19;100.00;101794.09;4906248;29;20044;-63
2022/08/24 07:25:34;;;;;;;23.10;20.70;;;;;;;22.22;100.00;101801.72;4898462;29;20171;-63
2022/08/24 07:28:01;;;;;;;30.17;20.02;;;;;;;22.31;100.00;101803.25;4903595;29;20067;-62
2022/08/24 07:30:33;;;;;;;30.15;20.27;;;;;;;22.35;100.00;101799.13;4896333;29;20122;-64
2022/08/24 07:33:05;;;;;;;26.23;19.05;;;;;;;22.44;100.00;101800.63;4905558;29;20054;-64
2022/08/24 07:35:32;;;;;;;27.67;20.38;;;;;;;22.47;100.00;101802.06;4901227;29;20785;-64
2022/08/24 07:38:00;;;;;;;25.40;19.33;;;;;;;22.56;100.00;101803.53;4904064;29;20058;-64
2022/08/24 07:40:28;;;;;;;25.65;17.05;;;;;;;22.65;100.00;101796.13;4908764;29;20052;-63
2022/08/24 07:42:57;;;;;;;21.67;17.73;;;;;;;22.69;100.00;101792.81;4905671;29;20044;-64
2022/08/24 07:45:25;;;;;;;21.15;18.83;;;;;;;22.78;100.00;101798.81;4905555;29;20059;-62
2022/08/24 07:47:52;;;;;;;21.30;17.13;;;;;;;22.83;100.00;101795.53;4903624;29;20052;-64
2022/08/24 07:50:21;;;;;;;20.88;17.08;;;;;;;22.90;100.00;101794.50;4904630;29;20052;-63
2022/08/24 07:52:47;;;;;;;22.00;16.75;;;;;;;22.97;100.00;101799.84;4901937;29;20075;-63
2022/08/24 07:55:14;;;;;;;22.67;16.05;;;;;;;23.04;100.00;101798.03;4902933;29;20602;-63
2022/08/24 07:57:41;;;;;;;19.83;14.95;;;;;;;23.07;100.00;101796.78;4910598;29;20052;-63
2022/08/24 08:00:10;;;;;;;22.52;14.77;;;;;;;23.20;100.00;101798.66;4898481;29;20572;-67
2022/08/24 08:02:37;;;;;;;20.95;13.85;;;;;;;23.26;100.00;101798.66;4908621;29;20051;-63
2022/08/24 08:05:05;;;;;;;17.65;14.95;;;;;;;23.29;100.00;101795.56;4900163;29;20139;-63
2022/08/24 08:07:31;;;;;;;17.38;13.48;;;;;;;23.41;100.00;101800.28;4890944;29;20052;-62
2022/08/24 08:10:00;;;;;;;18.20;12.68;;;;;;;23.60;100.00;101806.63;4905428;29;20060;-62
2022/08/24 08:12:27;;;;;;;17.63;12.63;;;;;;;23.88;100.00;101806.41;4896426;29;20074;-63
2022/08/24 08:14:53;;;;;;;18.38;12.80;;;;;;;24.16;100.00;101814.13;4908281;29;20048;-63
2022/08/24 08:17:19;;;;;;;14.38;10.63;;;;;;;24.48;100.00;101814.16;4902760;29;20056;-63
2022/08/24 08:19:46;;;;;;;14.77;11.10;;;;;;;24.81;100.00;101824.72;4912124;29;20056;-63
2022/08/24 08:24:57;;;;;;;13.18;8.55;;;;;;;25.45;100.00;101822.78;4896317;29;20064;-64
2022/08/24 08:27:24;;;;;;;13.15;8.73;;;;;;;25.70;100.00;101818.38;4898183;29;20054;-63
2022/08/24 08:29:50;;;;;;;14.90;10.32;;;;;;;25.95;99.38;101821.88;4904420;29;20062;-63
2022/08/24 08:32:18;;;;;;;13.77;8.38;;;;;;;26.25;97.38;101818.41;4909116;29;20513;-63
2022/08/24 08:34:45;;;;;;;;;;;;;;;26.61;92.31;101824.75;4899643;29;20497;-62
2022/08/24 08:37:13;;;;;;;11.70;7.50;;;;;;;26.83;94.40;101825.03;4909692;29;19933;-63
2022/08/24 08:39:40;;;;;;;14.10;7.40;;;;;;;27.01;87.17;101818.75;4904311;29;20060;-64
2022/08/24 08:42:07;;;;;;;10.03;6.03;;;;;;;27.20;83.36;101819.47;4896432;29;20148;-63
2022/08/24 08:44:42;;;;;;;9.43;5.45;;;;;;;27.46;83.72;101830.88;4911366;29;20056;-64
2022/08/24 08:47:17;;;;;;;10.57;5.90;;;;;;;27.61;82.15;101821.25;4893974;29;20787;-62
2022/08/24 08:50:07;;;;;;;6.93;5.13;;;;;;;27.79;81.16;101822.16;4905756;29;20048;-63
2022/08/24 08:52:56;;;;;;;8.25;5.10;;;;;;;28.00;77.41;101818.03;4896903;29;20055;-63
2022/08/24 08:55:31;;;;;;;13.32;6.25;;;;;;;28.11;75.67;101821.75;4904461;29;20083;-63
2022/08/24 08:58:10;;;;;;;10.60;6.32;;;;;;;28.23;75.81;101821.69;4902336;29;20054;-64
2022/08/24 09:01:00;;;;;;;9.18;5.28;;;;;;;28.48;77.59;101816.81;4909975;29;20738;-62
2022/08/24 09:04:11;;;;;;;8.18;3.30;;;;;;;28.62;73.39;101819.19;4902480;29;20377;-62
2022/08/24 09:07:12;;;;;;;8.35;3.85;;;;;;;28.62;70.88;101817.34;4903742;29;20692;-63
2022/08/24 09:10:03;;;;;;;6.35;2.95;;;;;;;28.75;69.05;101824.28;4892915;29;20147;-63
2022/08/24 09:12:54;;;;;;;9.00;3.30;;;;;;;28.91;70.67;101820.81;4902414;29;20603;-62
2022/08/24 09:15:38;;;;;;;4.68;2.72;;;;;;;29.08;69.44;101825.38;4901978;29;20056;-63
2022/08/24 09:18:27;;;;;;;4.88;2.50;;;;;;;29.38;69.82;101823.16;4894040;29;20092;-63
2022/08/24 09:21:11;;;;;;;5.85;2.53;;;;;;;29.53;68.57;101821.72;4875720;29;20050;-64
2022/08/24 09:23:43;;;;;;;4.88;2.80;;;;;;;29.72;67.96;101819.59;4908733;29;20059;-63
2022/08/24 09:26:16;;;;;;;3.25;1.95;;;;;;;29.86;65.50;101815.44;4892685;29;20055;-63
2022/08/24 09:28:59;;;;;;;5.50;1.98;;;;;;;29.90;63.36;101815.75;4908719;29;20056;-63
2022/08/24 09:31:46;;;;;;;3.28;2.25;;;;;;;29.70;63.45;101811.69;4909805;29;20052;-63
2022/08/24 09:34:37;;;;;;;3.13;2.15;;;;;;;29.73;64.44;101813.91;4900957;29;20493;-63
2022/08/24 09:37:29;;;;;;;3.67;1.90;;;;;;;30.05;63.96;101810.53;4906416;29;20056;-63
2022/08/24 09:40:34;;;;;;;4.97;2.10;;;;;;;30.26;63.22;101818.84;4904770;29;20052;-63
2022/08/24 09:43:27;;;;;;;3.05;2.13;;;;;;;30.43;62.78;101806.06;4899132;29;20051;-62
2022/08/24 09:46:43;;;;;;;6.22;2.20;;;;;;;30.64;61.57;101814.34;4904179;29;20511;-62
2022/08/24 09:49:23;;;;;;;5.90;1.98;;;;;;;30.79;60.00;101816.38;4876359;29;20068;-63
2022/08/24 09:52:25;;;;;;;4.07;2.22;;;;;;;31.00;61.29;101814.69;4910648;29;20083;-62
2022/08/24 09:55:00;;;;;;;4.18;2.20;;;;;;;31.13;60.08;101822.38;4903409;29;20417;-62
2022/08/24 09:57:45;;;;;;;5.20;2.33;;;;;;;31.20;59.15;101820.22;4910885;29;20063;-62
2022/08/24 10:00:36;;;;;;;2.80;2.10;;;;;;;31.41;59.35;101813.03;4890616;29;20111;-61
2022/08/24 10:03:21;;;;;;;3.83;2.15;;;;;;;31.40;59.47;101816.00;4904508;29;20051;-62
2022/08/24 10:06:06;;;;;;;4.53;2.05;;;;;;;31.49;59.32;101806.34;4901809;29;20056;-62
2022/08/24 10:08:38;;;;;;;7.65;1.95;;;;;;;31.72;59.51;101805.09;4909331;29;20080;-62
2022/08/24 10:11:23;;;;;;;3.15;2.15;;;;;;;32.06;59.44;101807.41;4909363;29;20444;-64
2022/08/24 10:14:12;;;;;;;3.00;2.03;;;;;;;31.99;56.78;101802.22;4900813;29;20431;-63
2022/08/24 10:17:13;;;;;;;3.92;1.90;;;;;;;32.15;57.51;101797.66;4905574;29;20056;-62
2022/08/24 10:20:04;;;;;;;2.83;1.88;;;;;;;32.15;55.69;101794.94;4894496;29;20064;-62
2022/08/24 10:22:49;;;;;;;5.30;2.30;;;;;;;31.89;56.45;101794.00;4909303;29;20516;-62
2022/08/24 10:25:29;;;;;;;6.95;2.10;;;;;;;32.20;57.65;101797.66;4901538;29;20060;-63
2022/08/24 10:28:09;;;;;;;6.15;2.58;;;;;;;32.25;56.53;101788.72;4906457;29;20412;-62
2022/08/24 10:31:00;;;;;;;5.47;1.92;;;;;;;32.30;55.83;101794.13;4892322;29;20082;-62
2022/08/24 10:33:31;;;;;;;4.30;1.88;;;;;;;32.36;56.68;101797.69;4908180;29;20489;-62
2022/08/24 10:36:33;;;;;;;3.78;1.45;;;;;;;32.64;56.63;101780.91;4898557;29;20048;-63
2022/08/24 10:39:42;;;;;;;5.07;1.70;;;;;;;32.93;54.05;101791.16;4905331;29;20044;-62
2022/08/24 10:45:24;;;;;;;1.90;1.58;;;;;;;33.30;53.68;101781.88;4898529;29;20138;-62
2022/08/24 10:48:38;;;;;;;3.90;1.77;;;;;;;33.41;53.33;101778.03;4900020;29;20059;-62
2022/08/24 10:51:42;;;;;;;2.90;2.00;;;;;;;33.35;52.06;101776.44;4909234;29;20052;-62
2022/08/24 10:54:12;;;;;;;3.35;1.90;;;;;;;33.48;53.41;101775.84;4902242;29;20078;-63
2022/08/24 10:56:40;;;;;;;3.63;1.90;;;;;;;33.49;52.61;101776.66;4872676;29;20524;-65
2022/08/24 10:59:21;;;;;;;23.27;19.35;;;;;;;33.40;52.62;101770.16;4893992;29;20056;-61
2022/08/24 11:02:08;;;;;;;6.55;3.20;;;;;;;33.31;51.88;101775.38;4907364;29;20058;-63
2022/08/24 11:04:38;;;;;;;3.53;2.22;;;;;;;33.39;53.08;101774.78;4890656;29;20056;-62
2022/08/24 11:07:22;;;;;;;3.78;2.30;;;;;;;33.67;53.36;101767.88;4901170;29;20095;-63
2022/08/24 11:10:00;;;;;;;4.63;2.20;;;;;;;33.81;51.46;101768.09;4905169;29;20052;-62
2022/08/24 11:12:38;;;;;;;5.15;2.58;;;;;;;33.84;54.82;101767.53;4905783;29;20052;-63
2022/08/24 11:15:16;;;;;;;4.50;2.40;;;;;;;34.03;51.35;101759.53;4904446;29;20052;-62
2022/08/24 11:17:55;;;;;;;3.95;1.98;;;;;;;34.39;51.78;101767.47;4906128;29;20060;-63
2022/08/24 11:20:31;;;;;;;8.85;2.92;;;;;;;34.30;51.21;101769.16;4907182;29;20091;-62
2022/08/24 11:23:05;;;;;;;6.00;2.30;;;;;;;34.37;52.72;101766.13;4908110;29;20535;-64
2022/08/24 11:25:35;;;;;;;3.30;2.03;;;;;;;34.52;52.72;101767.88;4902934;29;20437;-65
2022/08/24 11:28:14;;;;;;;6.00;2.30;;;;;;;34.58;51.16;101769.47;4903273;29;20051;-64
2022/08/24 11:30:41;;;;;;;4.85;2.40;;;;;;;34.64;52.46;101766.44;4903158;29;20052;-65
2022/08/24 11:33:33;;;;;;;6.32;2.92;;;;;;;34.59;51.03;101765.66;4901665;29;20092;-64
2022/08/24 11:36:01;;;;;;;3.05;2.22;;;;;;;34.32;52.53;101769.69;4893962;29;20052;-66
2022/08/24 11:38:33;;;;;;;6.57;2.47;;;;;;;34.24;52.64;101762.13;4895438;29;20056;-65
2022/08/24 11:41:14;;;;;;;3.58;2.20;;;;;;;34.03;52.10;101764.13;4900114;29;20667;-64
2022/08/24 11:43:56;;;;;;;6.60;3.28;;;;;;;33.28;51.33;101767.75;4899330;29;20074;-64
2022/08/24 11:46:31;;;;;;;5.35;2.33;;;;;;;33.23;52.90;101755.00;4912273;29;20051;-64
2022/08/24 11:49:21;;;;;;;6.28;2.47;;;;;;;33.20;53.64;101760.97;4898812;29;20048;-65